sensor_id;sensor_type;location;lat;lon;timestamp;pressure;altitude;pressure_sealevel;temperature;humidity
50933;BME280;36921;49.006;9.292;2023-04-27T00:01:48;98887.28;;;5.56;100.00
50933;BME280;36921;49.006;9.292;2023-04-27T00:04:14;98856.81;;;5.24;100.00
50933;BME280;36921;49.006;9.292;2023-04-27T00:06:41;98866.50;;;5.25;100.00
50933;BME280;36921;49.006;9.292;2023-04-27T00:09:06;98864.31;;;5.20;100.00
50933;BME280;36921;49.006;9.292;2023-04-27T00:11:31;98857.28;;;5.27;100.00
50933;BME280;36921;49.006;9.292;2023-04-27T00:13:57;98884.59;;;5.31;100.00
50933;BME280;36921;49.006;9.292;2023-04-27T00:16:22;98864.00;;;5.07;100.00
50933;BME280;36921;49.006;9.292;2023-04-27T00:18:47;98864.13;;;4.97;100.00
50933;BME280;36921;49.006;9.292;2023-04-27T00:21:13;98857.59;;;5.00;100.00
50933;BME280;36921;49.006;9.292;2023-04-27T00:23:38;98788.72;;;4.43;100.00
50933;BME280;36921;49.006;9.292;2023-04-27T00:26:04;98822.88;;;4.66;100.00
50933;BME280;36921;49.006;9.292;2023-04-27T00:28:29;98854.22;;;4.73;100.00
50933;BME280;36921;49.006;9.292;2023-04-27T00:30:54;98855.72;;;4.76;100.00
50933;BME280;36921;49.006;9.292;2023-04-27T00:33:20;98850.84;;;4.63;100.00
50933;BME280;36921;49.006;9.292;2023-04-27T00:35:45;98870.78;;;4.69;100.00
50933;BME280;36921;49.006;9.292;2023-04-27T00:38:11;98865.75;;;4.57;100.00
50933;BME280;36921;49.006;9.292;2023-04-27T00:40:37;98842.44;;;4.50;100.00
50933;BME280;36921;49.006;9.292;2023-04-27T00:43:02;98841.25;;;4.44;100.00
50933;BME280;36921;49.006;9.292;2023-04-27T00:45:28;98844.97;;;4.51;100.00
50933;BME280;36921;49.006;9.292;2023-04-27T00:47:53;98813.75;;;4.26;100.00
50933;BME280;36921;49.006;9.292;2023-04-27T00:50:27;98857.13;;;4.37;100.00
50933;BME280;36921;49.006;9.292;2023-04-27T00:52:56;98850.22;;;4.18;100.00
50933;BME280;36921;49.006;9.292;2023-04-27T00:55:22;98850.66;;;4.06;100.00
50933;BME280;36921;49.006;9.292;2023-04-27T00:57:47;98855.06;;;4.15;100.00
50933;BME280;36921;49.006;9.292;2023-04-27T01:00:13;98837.09;;;3.99;100.00
50933;BME280;36921;49.006;9.292;2023-04-27T01:02:40;98822.84;;;3.90;100.00
50933;BME280;36921;49.006;9.292;2023-04-27T01:05:05;98809.41;;;3.82;100.00
50933;BME280;36921;49.006;9.292;2023-04-27T01:07:31;98820.47;;;3.87;100.00
50933;BME280;36921;49.006;9.292;2023-04-27T01:09:56;98842.25;;;4.01;100.00
50933;BME280;36921;49.006;9.292;2023-04-27T01:12:21;98832.44;;;4.01;100.00
50933;BME280;36921;49.006;9.292;2023-04-27T01:14:47;98847.88;;;4.24;100.00
50933;BME280;36921;49.006;9.292;2023-04-27T01:17:12;98807.00;;;4.05;100.00
50933;BME280;36921;49.006;9.292;2023-04-27T01:19:38;98841.69;;;4.23;100.00
50933;BME280;36921;49.006;9.292;2023-04-27T01:22:04;98856.31;;;4.37;100.00
50933;BME280;36921;49.006;9.292;2023-04-27T01:24:32;98848.63;;;4.42;100.00
50933;BME280;36921;49.006;9.292;2023-04-27T01:26:57;98821.78;;;4.26;100.00
50933;BME280;36921;49.006;9.292;2023-04-27T01:29:22;98795.13;;;4.08;100.00
50933;BME280;36921;49.006;9.292;2023-04-27T01:31:47;98836.19;;;4.25;100.00
50933;BME280;36921;49.006;9.292;2023-04-27T01:34:13;98835.81;;;4.11;100.00
50933;BME280;36921;49.006;9.292;2023-04-27T01:36:38;98862.28;;;4.23;100.00
50933;BME280;36921;49.006;9.292;2023-04-27T01:39:03;98808.44;;;3.91;100.00
50933;BME280;36921;49.006;9.292;2023-04-27T01:41:33;98860.81;;;4.28;100.00
50933;BME280;36921;49.006;9.292;2023-04-27T01:43:58;98846.03;;;4.16;100.00
50933;BME280;36921;49.006;9.292;2023-04-27T01:46:23;98848.66;;;4.08;100.00
50933;BME280;36921;49.006;9.292;2023-04-27T01:48:48;98832.03;;;3.88;100.00
50933;BME280;36921;49.006;9.292;2023-04-27T01:51:14;98836.22;;;3.90;100.00
50933;BME280;36921;49.006;9.292;2023-04-27T01:53:40;98818.91;;;3.77;100.00
50933;BME280;36921;49.006;9.292;2023-04-27T01:56:05;98828.13;;;3.82;100.00
50933;BME280;36921;49.006;9.292;2023-04-27T01:58:31;98823.94;;;3.80;100.00
50933;BME280;36921;49.006;9.292;2023-04-27T02:00:56;98847.47;;;4.02;100.00
50933;BME280;36921;49.006;9.292;2023-04-27T02:03:21;98865.25;;;4.11;100.00
50933;BME280;36921;49.006;9.292;2023-04-27T02:05:47;98837.88;;;3.91;100.00
50933;BME280;36921;49.006;9.292;2023-04-27T02:08:12;98856.31;;;3.94;100.00
50933;BME280;36921;49.006;9.292;2023-04-27T02:10:38;98854.47;;;3.95;100.00
50933;BME280;36921;49.006;9.292;2023-04-27T02:13:03;98859.31;;;3.91;100.00
50933;BME280;36921;49.006;9.292;2023-04-27T02:15:28;98831.31;;;3.78;100.00
50933;BME280;36921;49.006;9.292;2023-04-27T02:17:54;98860.34;;;3.99;100.00
50933;BME280;36921;49.006;9.292;2023-04-27T02:20:20;98856.78;;;3.90;100.00
50933;BME280;36921;49.006;9.292;2023-04-27T02:22:45;98835.94;;;3.67;100.00
50933;BME280;36921;49.006;9.292;2023-04-27T02:25:11;98878.72;;;3.93;100.00
50933;BME280;36921;49.006;9.292;2023-04-27T02:27:40;98857.94;;;3.87;100.00
50933;BME280;36921;49.006;9.292;2023-04-27T02:30:10;98862.13;;;3.90;100.00
50933;BME280;36921;49.006;9.292;2023-04-27T02:32:38;98847.38;;;3.78;100.00
50933;BME280;36921;49.006;9.292;2023-04-27T02:35:04;98890.03;;;4.13;100.00
50933;BME280;36921;49.006;9.292;2023-04-27T02:37:29;98870.25;;;4.06;100.00
50933;BME280;36921;49.006;9.292;2023-04-27T02:39:55;98809.69;;;3.71;100.00
50933;BME280;36921;49.006;9.292;2023-04-27T02:42:20;98870.38;;;3.97;100.00
50933;BME280;36921;49.006;9.292;2023-04-27T02:44:46;98890.03;;;4.13;100.00
50933;BME280;36921;49.006;9.292;2023-04-27T02:47:11;98855.09;;;3.89;100.00
50933;BME280;36921;49.006;9.292;2023-04-27T02:49:37;98896.41;;;4.21;100.00
50933;BME280;36921;49.006;9.292;2023-04-27T02:52:03;98852.47;;;3.97;100.00
50933;BME280;36921;49.006;9.292;2023-04-27T02:54:28;98894.94;;;4.26;100.00
50933;BME280;36921;49.006;9.292;2023-04-27T02:56:53;98896.81;;;4.34;100.00
50933;BME280;36921;49.006;9.292;2023-04-27T02:59:19;98850.50;;;4.07;100.00
50933;BME280;36921;49.006;9.292;2023-04-27T03:01:44;98874.34;;;4.27;100.00
50933;BME280;36921;49.006;9.292;2023-04-27T03:04:10;98863.63;;;4.27;100.00
50933;BME280;36921;49.006;9.292;2023-04-27T03:06:38;98863.34;;;4.38;100.00
50933;BME280;36921;49.006;9.292;2023-04-27T03:09:03;98867.91;;;4.46;100.00
50933;BME280;36921;49.006;9.292;2023-04-27T03:11:29;98883.47;;;4.50;100.00
50933;BME280;36921;49.006;9.292;2023-04-27T03:13:54;98878.63;;;4.46;100.00
50933;BME280;36921;49.006;9.292;2023-04-27T03:16:20;98867.19;;;4.35;100.00
50933;BME280;36921;49.006;9.292;2023-04-27T03:18:45;98874.56;;;4.33;100.00
50933;BME280;36921;49.006;9.292;2023-04-27T03:21:11;98886.81;;;4.44;100.00
50933;BME280;36921;49.006;9.292;2023-04-27T03:23:37;98903.22;;;4.49;100.00
50933;BME280;36921;49.006;9.292;2023-04-27T03:26:11;98902.28;;;4.58;100.00
50933;BME280;36921;49.006;9.292;2023-04-27T03:28:38;98871.03;;;4.33;100.00
50933;BME280;36921;49.006;9.292;2023-04-27T03:31:04;98888.81;;;4.50;100.00
50933;BME280;36921;49.006;9.292;2023-04-27T03:33:30;98883.44;;;4.42;100.00
50933;BME280;36921;49.006;9.292;2023-04-27T03:35:56;98870.03;;;4.34;100.00
50933;BME280;36921;49.006;9.292;2023-04-27T03:38:22;98871.38;;;4.30;100.00
50933;BME280;36921;49.006;9.292;2023-04-27T03:40:48;98850.19;;;4.10;100.00
50933;BME280;36921;49.006;9.292;2023-04-27T03:43:13;98875.41;;;4.42;100.00
50933;BME280;36921;49.006;9.292;2023-04-27T03:45:38;98845.44;;;4.38;100.00
50933;BME280;36921;49.006;9.292;2023-04-27T03:51:26;98847.31;;;4.46;100.00
50933;BME280;36921;49.006;9.292;2023-04-27T03:53:54;98881.69;;;4.67;100.00
50933;BME280;36921;49.006;9.292;2023-04-27T03:56:19;98843.81;;;4.54;100.00
50933;BME280;36921;49.006;9.292;2023-04-27T03:58:48;98857.88;;;4.56;100.00
50933;BME280;36921;49.006;9.292;2023-04-27T04:01:13;98838.59;;;4.52;100.00
50933;BME280;36921;49.006;9.292;2023-04-27T04:03:41;98857.91;;;4.72;100.00
50933;BME280;36921;49.006;9.292;2023-04-27T04:06:06;98862.25;;;4.65;100.00
50933;BME280;36921;49.006;9.292;2023-04-27T04:08:32;98869.13;;;4.68;100.00
50933;BME280;36921;49.006;9.292;2023-04-27T04:10:58;98854.19;;;4.49;100.00
50933;BME280;36921;49.006;9.292;2023-04-27T04:13:24;98895.91;;;4.59;100.00
50933;BME280;36921;49.006;9.292;2023-04-27T04:15:49;98880.63;;;4.44;100.00
50933;BME280;36921;49.006;9.292;2023-04-27T04:18:24;98814.34;;;4.03;100.00
50933;BME280;36921;49.006;9.292;2023-04-27T04:20:49;98908.66;;;4.74;100.00
50933;BME280;36921;49.006;9.292;2023-04-27T04:23:15;98869.94;;;4.60;100.00
50933;BME280;36921;49.006;9.292;2023-04-27T04:25:40;98861.75;;;4.61;100.00
50933;BME280;36921;49.006;9.292;2023-04-27T04:28:05;98839.94;;;4.48;100.00
50933;BME280;36921;49.006;9.292;2023-04-27T04:30:31;98891.78;;;4.90;100.00
50933;BME280;36921;49.006;9.292;2023-04-27T04:32:57;98903.00;;;4.77;100.00
50933;BME280;36921;49.006;9.292;2023-04-27T04:35:22;98879.19;;;4.82;100.00
50933;BME280;36921;49.006;9.292;2023-04-27T04:37:48;98881.56;;;4.85;100.00
50933;BME280;36921;49.006;9.292;2023-04-27T04:40:13;98897.13;;;4.90;100.00
50933;BME280;36921;49.006;9.292;2023-04-27T04:42:38;98848.50;;;4.52;100.00
50933;BME280;36921;49.006;9.292;2023-04-27T04:45:04;98818.78;;;4.29;100.00
50933;BME280;36921;49.006;9.292;2023-04-27T04:47:31;98910.91;;;5.03;100.00
50933;BME280;36921;49.006;9.292;2023-04-27T04:49:57;98897.47;;;5.03;100.00
50933;BME280;36921;49.006;9.292;2023-04-27T04:52:22;98886.47;;;5.22;100.00
50933;BME280;36921;49.006;9.292;2023-04-27T04:54:51;98919.47;;;5.31;100.00
50933;BME280;36921;49.006;9.292;2023-04-27T04:57:17;98876.38;;;5.00;100.00
50933;BME280;36921;49.006;9.292;2023-04-27T04:59:42;98886.75;;;5.03;100.00
50933;BME280;36921;49.006;9.292;2023-04-27T05:02:07;98921.31;;;5.22;100.00
50933;BME280;36921;49.006;9.292;2023-04-27T05:04:32;98898.69;;;5.17;100.00
50933;BME280;36921;49.006;9.292;2023-04-27T05:06:58;98878.75;;;5.19;100.00
50933;BME280;36921;49.006;9.292;2023-04-27T05:09:24;98908.59;;;5.41;100.00
50933;BME280;36921;49.006;9.292;2023-04-27T05:11:49;98901.22;;;5.51;100.00
50933;BME280;36921;49.006;9.292;2023-04-27T05:14:15;98888.47;;;5.45;100.00
50933;BME280;36921;49.006;9.292;2023-04-27T05:16:40;98904.03;;;5.58;100.00
50933;BME280;36921;49.006;9.292;2023-04-27T05:19:05;98882.91;;;5.55;100.00
50933;BME280;36921;49.006;9.292;2023-04-27T05:21:32;98903.03;;;5.75;100.00
50933;BME280;36921;49.006;9.292;2023-04-27T05:23:57;98915.28;;;5.94;100.00
50933;BME280;36921;49.006;9.292;2023-04-27T05:26:23;98891.94;;;5.95;100.00
50933;BME280;36921;49.006;9.292;2023-04-27T05:28:48;98885.72;;;5.86;100.00
50933;BME280;36921;49.006;9.292;2023-04-27T05:31:13;98873.47;;;5.83;100.00
50933;BME280;36921;49.006;9.292;2023-04-27T05:33:39;98899.59;;;6.22;100.00
50933;BME280;36921;49.006;9.292;2023-04-27T05:36:04;98914.38;;;6.57;100.00
50933;BME280;36921;49.006;9.292;2023-04-27T05:38:30;98910.50;;;6.68;100.00
50933;BME280;36921;49.006;9.292;2023-04-27T05:40:57;98925.22;;;6.80;100.00
50933;BME280;36921;49.006;9.292;2023-04-27T05:43:23;98911.97;;;7.02;100.00
50933;BME280;36921;49.006;9.292;2023-04-27T05:45:49;98909.25;;;7.10;100.00
50933;BME280;36921;49.006;9.292;2023-04-27T05:48:15;98898.50;;;7.10;100.00
50933;BME280;36921;49.006;9.292;2023-04-27T05:50:40;98918.97;;;7.11;100.00
50933;BME280;36921;49.006;9.292;2023-04-27T05:53:05;98920.88;;;7.25;100.00
50933;BME280;36921;49.006;9.292;2023-04-27T05:55:32;98936.88;;;7.50;100.00
50933;BME280;36921;49.006;9.292;2023-04-27T05:57:57;98932.38;;;7.65;100.00
50933;BME280;36921;49.006;9.292;2023-04-27T06:00:23;98942.81;;;7.83;100.00
50933;BME280;36921;49.006;9.292;2023-04-27T06:02:49;98914.06;;;7.61;100.00
50933;BME280;36921;49.006;9.292;2023-04-27T06:05:14;98931.56;;;7.80;100.00
50933;BME280;36921;49.006;9.292;2023-04-27T06:07:39;98926.59;;;7.92;100.00
50933;BME280;36921;49.006;9.292;2023-04-27T06:10:11;98939.25;;;8.35;100.00
50933;BME280;36921;49.006;9.292;2023-04-27T06:12:36;98921.34;;;8.58;100.00
50933;BME280;36921;49.006;9.292;2023-04-27T06:15:02;98947.34;;;8.80;100.00
50933;BME280;36921;49.006;9.292;2023-04-27T06:17:36;98923.53;;;8.84;100.00
50933;BME280;36921;49.006;9.292;2023-04-27T06:20:02;98950.00;;;9.10;100.00
50933;BME280;36921;49.006;9.292;2023-04-27T06:22:31;98925.13;;;9.14;100.00
50933;BME280;36921;49.006;9.292;2023-04-27T06:24:56;98922.88;;;9.18;100.00
50933;BME280;36921;49.006;9.292;2023-04-27T06:27:21;98931.25;;;9.44;100.00
50933;BME280;36921;49.006;9.292;2023-04-27T06:29:47;98921.97;;;9.75;100.00
50933;BME280;36921;49.006;9.292;2023-04-27T06:32:12;98933.47;;;10.12;100.00
50933;BME280;36921;49.006;9.292;2023-04-27T06:34:37;98918.38;;;10.24;100.00
50933;BME280;36921;49.006;9.292;2023-04-27T06:37:02;98943.91;;;9.65;100.00
50933;BME280;36921;49.006;9.292;2023-04-27T06:39:28;98926.38;;;10.11;100.00
50933;BME280;36921;49.006;9.292;2023-04-27T06:41:53;98922.19;;;10.71;100.00
50933;BME280;36921;49.006;9.292;2023-04-27T06:44:19;98931.16;;;11.27;100.00
50933;BME280;36921;49.006;9.292;2023-04-27T06:46:44;98917.66;;;11.67;100.00
50933;BME280;36921;49.006;9.292;2023-04-27T06:49:09;98927.06;;;11.91;100.00
50933;BME280;36921;49.006;9.292;2023-04-27T06:51:36;98940.41;;;12.19;100.00
50933;BME280;36921;49.006;9.292;2023-04-27T06:54:01;98944.19;;;11.98;100.00
50933;BME280;36921;49.006;9.292;2023-04-27T06:56:27;98949.13;;;12.47;100.00
50933;BME280;36921;49.006;9.292;2023-04-27T06:58:53;98949.31;;;12.53;100.00
50933;BME280;36921;49.006;9.292;2023-04-27T07:01:18;98938.81;;;12.69;100.00
50933;BME280;36921;49.006;9.292;2023-04-27T07:03:43;98933.84;;;13.11;100.00
50933;BME280;36921;49.006;9.292;2023-04-27T07:06:08;98936.94;;;13.28;100.00
50933;BME280;36921;49.006;9.292;2023-04-27T07:08:34;98926.47;;;13.32;100.00
50933;BME280;36921;49.006;9.292;2023-04-27T07:11:00;98928.44;;;13.50;100.00
50933;BME280;36921;49.006;9.292;2023-04-27T07:13:26;98943.50;;;13.52;100.00
50933;BME280;36921;49.006;9.292;2023-04-27T07:15:55;98963.78;;;14.07;100.00
50933;BME280;36921;49.006;9.292;2023-04-27T07:18:24;98934.25;;;14.10;100.00
50933;BME280;36921;49.006;9.292;2023-04-27T07:20:52;98942.00;;;14.32;100.00
50933;BME280;36921;49.006;9.292;2023-04-27T07:23:17;98960.44;;;14.55;100.00
50933;BME280;36921;49.006;9.292;2023-04-27T07:25:42;98967.22;;;15.19;100.00
50933;BME280;36921;49.006;9.292;2023-04-27T07:28:09;98947.50;;;15.54;100.00
50933;BME280;36921;49.006;9.292;2023-04-27T07:30:35;98957.78;;;15.82;100.00
50933;BME280;36921;49.006;9.292;2023-04-27T07:33:01;98964.88;;;16.25;94.68
50933;BME280;36921;49.006;9.292;2023-04-27T07:35:26;98941.81;;;16.44;90.39
50933;BME280;36921;49.006;9.292;2023-04-27T07:37:52;98946.56;;;16.49;86.13
50933;BME280;36921;49.006;9.292;2023-04-27T07:40:17;98944.91;;;16.72;76.67
50933;BME280;36921;49.006;9.292;2023-04-27T07:42:43;98944.44;;;16.39;79.63
50933;BME280;36921;49.006;9.292;2023-04-27T07:45:10;98936.44;;;16.73;77.75
50933;BME280;36921;49.006;9.292;2023-04-27T07:47:36;98910.75;;;18.01;65.94
50933;BME280;36921;49.006;9.292;2023-04-27T07:50:01;98924.34;;;18.12;61.18
50933;BME280;36921;49.006;9.292;2023-04-27T07:52:30;98917.13;;;18.06;62.53
50933;BME280;36921;49.006;9.292;2023-04-27T07:54:56;98922.34;;;19.24;58.47
50933;BME280;36921;49.006;9.292;2023-04-27T07:57:21;98933.31;;;17.91;59.46
50933;BME280;36921;49.006;9.292;2023-04-27T07:59:46;98942.00;;;18.94;56.19
50933;BME280;36921;49.006;9.292;2023-04-27T08:02:12;98925.09;;;19.52;55.28
50933;BME280;36921;49.006;9.292;2023-04-27T08:04:37;98920.66;;;20.42;52.88
50933;BME280;36921;49.006;9.292;2023-04-27T08:07:02;98928.25;;;20.62;47.53
50933;BME280;36921;49.006;9.292;2023-04-27T08:09:27;98922.56;;;21.42;47.13
50933;BME280;36921;49.006;9.292;2023-04-27T08:11:53;98926.47;;;21.77;44.87
50933;BME280;36921;49.006;9.292;2023-04-27T08:14:18;98930.63;;;22.10;45.34
50933;BME280;36921;49.006;9.292;2023-04-27T08:16:43;98898.19;;;24.26;41.16
50933;BME280;36921;49.006;9.292;2023-04-27T08:19:10;98928.28;;;26.29;39.01
50933;BME280;36921;49.006;9.292;2023-04-27T08:21:36;98921.22;;;25.47;39.63
50933;BME280;36921;49.006;9.292;2023-04-27T08:24:02;98904.28;;;27.85;36.79
50933;BME280;36921;49.006;9.292;2023-04-27T08:26:28;98911.31;;;29.38;33.57
50933;BME280;36921;49.006;9.292;2023-04-27T08:28:53;98892.13;;;29.28;33.73
50933;BME280;36921;49.006;9.292;2023-04-27T08:31:20;98914.16;;;28.36;33.50
50933;BME280;36921;49.006;9.292;2023-04-27T08:33:46;98907.03;;;27.62;34.38
50933;BME280;36921;49.006;9.292;2023-04-27T08:36:11;98901.66;;;27.66;34.31
50933;BME280;36921;49.006;9.292;2023-04-27T08:38:36;98908.84;;;28.03;33.81
50933;BME280;36921;49.006;9.292;2023-04-27T08:41:03;98891.88;;;28.58;33.57
50933;BME280;36921;49.006;9.292;2023-04-27T08:43:34;98909.41;;;27.55;33.49
50933;BME280;36921;49.006;9.292;2023-04-27T08:46:01;98899.16;;;27.78;32.39
50933;BME280;36921;49.006;9.292;2023-04-27T08:48:27;98899.63;;;27.94;32.30
50933;BME280;36921;49.006;9.292;2023-04-27T08:50:55;98881.38;;;27.29;32.64
50933;BME280;36921;49.006;9.292;2023-04-27T08:53:21;98900.84;;;25.75;33.72
50933;BME280;36921;49.006;9.292;2023-04-27T08:55:50;98888.34;;;29.24;31.49
50933;BME280;36921;49.006;9.292;2023-04-27T08:58:15;98883.47;;;29.90;30.26
50933;BME280;36921;49.006;9.292;2023-04-27T09:00:42;98892.75;;;31.95;28.51
50933;BME280;36921;49.006;9.292;2023-04-27T09:03:26;98895.84;;;32.48;27.52
50933;BME280;36921;49.006;9.292;2023-04-27T09:05:51;98894.53;;;31.28;27.77
50933;BME280;36921;49.006;9.292;2023-04-27T09:08:17;98888.84;;;30.22;29.25
50933;BME280;36921;49.006;9.292;2023-04-27T09:10:46;98891.50;;;29.57;28.81
50933;BME280;36921;49.006;9.292;2023-04-27T09:13:13;98877.03;;;28.40;30.38
50933;BME280;36921;49.006;9.292;2023-04-27T09:15:49;98895.28;;;28.55;30.92
50933;BME280;36921;49.006;9.292;2023-04-27T09:18:21;98886.44;;;28.53;29.94
50933;BME280;36921;49.006;9.292;2023-04-27T09:20:49;98887.06;;;27.60;30.49
50933;BME280;36921;49.006;9.292;2023-04-27T09:23:25;98889.22;;;29.94;29.39
50933;BME280;36921;49.006;9.292;2023-04-27T09:25:52;98888.53;;;29.62;28.78
50933;BME280;36921;49.006;9.292;2023-04-27T09:28:18;98882.78;;;29.50;29.04
50933;BME280;36921;49.006;9.292;2023-04-27T09:30:51;98893.25;;;30.49;29.91
50933;BME280;36921;49.006;9.292;2023-04-27T09:33:24;98889.03;;;29.99;31.05
50933;BME280;36921;49.006;9.292;2023-04-27T09:35:51;98887.72;;;30.14;28.43
50933;BME280;36921;49.006;9.292;2023-04-27T09:38:20;98897.69;;;29.37;28.87
50933;BME280;36921;49.006;9.292;2023-04-27T09:40:47;98896.66;;;29.07;29.23
50933;BME280;36921;49.006;9.292;2023-04-27T09:43:13;98904.78;;;29.52;29.04
50933;BME280;36921;49.006;9.292;2023-04-27T09:45:39;98899.47;;;28.44;29.76
50933;BME280;36921;49.006;9.292;2023-04-27T09:48:05;98889.34;;;31.69;27.79
50933;BME280;36921;49.006;9.292;2023-04-27T09:50:35;98899.75;;;31.80;26.61
50933;BME280;36921;49.006;9.292;2023-04-27T09:53:02;98871.22;;;30.56;27.87
50933;BME280;36921;49.006;9.292;2023-04-27T09:55:36;98870.41;;;30.55;27.88
50933;BME280;36921;49.006;9.292;2023-04-27T10:06:57;98873.97;;;29.74;26.62
50933;BME280;36921;49.006;9.292;2023-04-27T10:09:24;98883.81;;;28.48;27.22
50933;BME280;36921;49.006;9.292;2023-04-27T10:11:51;98878.50;;;30.22;27.36
50933;BME280;36921;49.006;9.292;2023-04-27T10:14:18;98876.06;;;30.76;27.13
50933;BME280;36921;49.006;9.292;2023-04-27T10:16:57;98884.03;;;30.95;26.59
50933;BME280;36921;49.006;9.292;2023-04-27T10:19:23;98878.72;;;30.64;27.22
50933;BME280;36921;49.006;9.292;2023-04-27T10:21:52;98882.78;;;30.28;27.09
50933;BME280;36921;49.006;9.292;2023-04-27T10:24:17;98873.78;;;31.59;25.67
50933;BME280;36921;49.006;9.292;2023-04-27T10:26:47;98874.22;;;30.80;26.65
50933;BME280;36921;49.006;9.292;2023-04-27T10:29:12;98870.97;;;31.38;26.79
50933;BME280;36921;49.006;9.292;2023-04-27T10:31:44;98879.63;;;30.86;26.80
50933;BME280;36921;49.006;9.292;2023-04-27T10:34:16;98870.66;;;30.71;24.39
50933;BME280;36921;49.006;9.292;2023-04-27T10:36:42;98888.81;;;27.92;26.00
50933;BME280;36921;49.006;9.292;2023-04-27T10:39:14;98888.34;;;28.22;27.20
50933;BME280;36921;49.006;9.292;2023-04-27T10:41:49;98865.75;;;29.43;27.09
50933;BME280;36921;49.006;9.292;2023-04-27T10:44:16;98874.47;;;28.53;27.27
50933;BME280;36921;49.006;9.292;2023-04-27T10:46:52;98892.03;;;28.08;27.82
50933;BME280;36921;49.006;9.292;2023-04-27T10:49:18;98861.97;;;29.56;26.66
50933;BME280;36921;49.006;9.292;2023-04-27T10:51:43;98864.31;;;30.53;25.80
50933;BME280;36921;49.006;9.292;2023-04-27T10:54:10;98858.19;;;29.52;26.17
50933;BME280;36921;49.006;9.292;2023-04-27T10:56:35;98862.88;;;29.08;28.41
50933;BME280;36921;49.006;9.292;2023-04-27T10:59:02;98868.22;;;32.13;26.31
50933;BME280;36921;49.006;9.292;2023-04-27T11:01:28;98857.72;;;32.92;25.68
50933;BME280;36921;49.006;9.292;2023-04-27T11:03:54;98856.31;;;36.05;23.52
50933;BME280;36921;49.006;9.292;2023-04-27T11:06:21;98861.59;;;33.77;23.81
50933;BME280;36921;49.006;9.292;2023-04-27T11:08:46;98860.25;;;32.48;24.63
50933;BME280;36921;49.006;9.292;2023-04-27T11:11:15;98851.00;;;31.48;25.56
50933;BME280;36921;49.006;9.292;2023-04-27T11:13:42;98856.69;;;32.72;24.17
50933;BME280;36921;49.006;9.292;2023-04-27T11:16:08;98842.84;;;31.13;25.49
50933;BME280;36921;49.006;9.292;2023-04-27T11:18:36;98852.44;;;30.65;24.54
50933;BME280;36921;49.006;9.292;2023-04-27T11:21:28;98856.22;;;29.44;25.42
50933;BME280;36921;49.006;9.292;2023-04-27T11:23:53;98860.31;;;27.87;26.86
50933;BME280;36921;49.006;9.292;2023-04-27T11:26:20;98852.25;;;30.23;25.73
50933;BME280;36921;49.006;9.292;2023-04-27T11:29:00;98855.06;;;29.36;25.66
50933;BME280;36921;49.006;9.292;2023-04-27T11:31:28;98842.03;;;28.88;26.06
50933;BME280;36921;49.006;9.292;2023-04-27T11:34:02;98837.72;;;29.48;26.00
50933;BME280;36921;49.006;9.292;2023-04-27T11:36:27;98846.78;;;32.75;25.15
50933;BME280;36921;49.006;9.292;2023-04-27T11:38:56;98824.69;;;34.19;23.68
50933;BME280;36921;49.006;9.292;2023-04-27T11:41:32;98832.94;;;34.00;23.91
50933;BME280;36921;49.006;9.292;2023-04-27T11:44:03;98832.38;;;35.02;22.63
50933;BME280;36921;49.006;9.292;2023-04-27T11:46:28;98841.47;;;35.66;23.45
50933;BME280;36921;49.006;9.292;2023-04-27T11:49:00;98849.00;;;34.75;22.53
50933;BME280;36921;49.006;9.292;2023-04-27T11:51:28;98838.91;;;34.42;23.15
50933;BME280;36921;49.006;9.292;2023-04-27T11:53:53;98837.91;;;34.98;23.40
50933;BME280;36921;49.006;9.292;2023-04-27T11:56:18;98828.19;;;34.16;23.62
50933;BME280;36921;49.006;9.292;2023-04-27T11:58:44;98827.03;;;32.96;23.82
50933;BME280;36921;49.006;9.292;2023-04-27T12:01:09;98841.38;;;31.91;24.48
50933;BME280;36921;49.006;9.292;2023-04-27T12:03:36;98834.25;;;32.60;24.29
50933;BME280;36921;49.006;9.292;2023-04-27T12:06:01;98804.84;;;33.03;25.01
50933;BME280;36921;49.006;9.292;2023-04-27T12:08:27;98824.94;;;33.46;24.23
50933;BME280;36921;49.006;9.292;2023-04-27T12:10:52;98832.47;;;30.46;25.37
50933;BME280;36921;49.006;9.292;2023-04-27T12:13:17;98821.81;;;29.40;26.80
50933;BME280;36921;49.006;9.292;2023-04-27T12:15:46;98824.41;;;29.19;27.24
50933;BME280;36921;49.006;9.292;2023-04-27T12:18:11;98828.38;;;29.70;27.49
50933;BME280;36921;49.006;9.292;2023-04-27T12:20:36;98805.38;;;28.24;27.91
50933;BME280;36921;49.006;9.292;2023-04-27T12:23:02;98817.25;;;28.38;27.83
50933;BME280;36921;49.006;9.292;2023-04-27T12:25:27;98815.03;;;28.49;28.60
50933;BME280;36921;49.006;9.292;2023-04-27T12:27:53;98810.22;;;28.89;27.82
50933;BME280;36921;49.006;9.292;2023-04-27T12:30:18;98809.78;;;28.47;28.15
50933;BME280;36921;49.006;9.292;2023-04-27T12:32:45;98810.97;;;29.56;28.03
50933;BME280;36921;49.006;9.292;2023-04-27T12:35:10;98800.34;;;30.99;27.11
50933;BME280;36921;49.006;9.292;2023-04-27T12:37:36;98805.06;;;31.07;26.87
50933;BME280;36921;49.006;9.292;2023-04-27T12:40:02;98800.47;;;31.86;26.07
50933;BME280;36921;49.006;9.292;2023-04-27T12:42:31;98794.38;;;31.30;26.36
50933;BME280;36921;49.006;9.292;2023-04-27T12:44:56;98794.94;;;31.23;27.08
50933;BME280;36921;49.006;9.292;2023-04-27T12:47:22;98797.28;;;32.09;27.90
50933;BME280;36921;49.006;9.292;2023-04-27T12:49:47;98786.22;;;32.25;26.71
50933;BME280;36921;49.006;9.292;2023-04-27T12:52:12;98784.72;;;33.13;26.80
50933;BME280;36921;49.006;9.292;2023-04-27T12:54:38;98794.91;;;31.65;26.97
50933;BME280;36921;49.006;9.292;2023-04-27T12:57:04;98788.03;;;29.67;28.91
50933;BME280;36921;49.006;9.292;2023-04-27T12:59:32;98788.00;;;29.59;29.57
50933;BME280;36921;49.006;9.292;2023-04-27T13:01:59;98783.88;;;30.76;29.21
50933;BME280;36921;49.006;9.292;2023-04-27T13:04:25;98778.22;;;31.90;28.31
50933;BME280;36921;49.006;9.292;2023-04-27T13:06:50;98784.25;;;30.66;28.42
50933;BME280;36921;49.006;9.292;2023-04-27T13:09:16;98770.50;;;30.31;27.45